Etusivu
METAR-TAF:

METAR-TAF

Lentoasemat :

Kullu / Manali, Intia

Leveyspiiri: 31-52-36N, Pituuspiiri: 77-09-16E, korkeus merenpinnasta: 1089 m

Tämänhetkinen sää

Tämä raportti tehtiin 6 tuntia ja 31 minuuttia sitten, kello 06.00 UTC
tyyntä
Lämpötila 30°C
Kosteus 49%
Ilmanpaine 1003 hPa
Näkyvyys: 6000 m
Muutamia pilviä 4000 ft:n korkeudessa

METAR: VIBR 190600Z 00000KT 6000 FEW040 30/18 Q1003

Aika: 18:01 (12:31 UTC)

Sääennuste

Tämä raportti tehtiin 7 tuntia ja 31 minuuttia sitten, kello 05.00 UTC
Ennuste voimassa 19. päivästä klo 06 UTC - 19. päivään klo 15 UTC
Tuuli 5 kn idästä/koillisesta
Näkyvyys: 6000 m
Muutamia pilviä 4000 ft:n korkeudessa

TAF: VIBR 190500Z 1906/1915 07005KT 6000 FEW040

Säähavainnot ja -ennusteet yli 4000 lentoasemalta (METAR- ja TAF-raportit).

Käytössä olevat sääasemat on merkitty karttaan keltaisilla ja punaisilla pisteillä.

Aseta hiiri pisteen päälle nähdäksesi sääaseman nimen.

Klikkaa sitten nähdäksesi säähavainnot ja -ennusteet.

Kartan vaihtaminen: klikkaa mustalla rastilla varustettuja vihreitä pisteitä, niin voit zoomata sisään; viivalla varustettua vihreää pistettä, niin voit zoomata ulos tai vihreitä nuolia, niin pääset viereisille kartoille.


METAR-TAF: